Time,TemperatureF,DewpointF,PressureIn,WindDirection,WindDirectionDegrees,WindSpeedMPH,WindSpeedGustMPH,Humidity,HourlyPrecipIn,Conditions,Clouds,dailyrainin,SoftwareType,DateUTC
2013-10-04 01:00:00,65.0,65.0,30.00,SE,132,0.0,0.0,99,0.00,,,0.00,,2013-10-04 05:00:00,
2013-10-04 01:16:00,65.0,65.0,30.00,SE,132,0.0,0.0,99,0.00,,,0.00,,2013-10-04 05:16:00,
2013-10-04 01:31:00,65.0,65.0,29.99,SE,132,0.0,0.0,99,0.00,,,0.00,,2013-10-04 05:31:00,
2013-10-04 01:56:00,65.0,65.0,29.98,SE,132,0.0,0.0,99,0.00,,,0.00,,2013-10-04 05:56:00,
2013-10-04 02:18:00,64.0,64.0,29.99,SE,132,0.0,0.0,99,0.00,,,0.00,,2013-10-04 06:18:00,
2013-10-04 02:26:00,64.0,64.0,29.99,SE,132,0.0,0.0,99,0.00,,,0.00,,2013-10-04 06:26:00,
2013-10-04 02:59:00,65.0,65.0,29.98,SE,132,0.0,0.0,99,0.00,,,0.00,,2013-10-04 06:59:00,
2013-10-04 03:26:00,65.0,65.0,29.99,SE,132,0.0,0.0,99,0.00,,,0.00,,2013-10-04 07:26:00,
2013-10-04 03:55:00,65.0,65.0,29.98,SE,132,0.0,0.0,99,0.00,,,0.00,,2013-10-04 07:55:00,
2013-10-04 04:26:00,65.0,65.0,29.98,SE,132,0.0,0.0,99,0.00,,,0.00,,2013-10-04 08:26:00,
2013-10-04 04:55:00,65.0,65.0,29.99,SE,132,0.0,0.0,99,0.00,,,0.00,,2013-10-04 08:55:00,
2013-10-04 05:26:00,65.0,65.0,29.99,SE,132,0.0,0.0,99,0.00,,,0.00,,2013-10-04 09:26:00,
2013-10-04 05:57:00,65.0,65.0,29.99,SE,132,0.0,0.0,99,0.00,,,0.00,,2013-10-04 09:57:00,
2013-10-04 06:29:00,65.0,65.0,29.99,SE,132,0.0,0.0,99,0.00,,,0.00,,2013-10-04 10:29:00,
2013-10-04 06:58:00,64.0,64.0,30.00,SE,132,0.0,0.0,99,0.00,,,0.00,,2013-10-04 10:58:00,
2013-10-04 07:29:00,64.0,64.0,30.00,SE,132,0.0,0.0,99,0.00,,,0.00,,2013-10-04 11:29:00,
2013-10-04 07:57:00,64.0,64.0,30.01,SE,132,0.0,0.0,99,0.00,,,0.00,,2013-10-04 11:57:00,
2013-10-04 08:29:00,64.0,64.0,30.02,SE,132,0.0,0.0,99,0.00,,,0.00,,2013-10-04 12:29:00,
2013-10-04 08:57:00,65.0,65.0,30.02,SE,132,0.0,0.0,99,0.00,,,0.00,,2013-10-04 12:57:00,
2013-10-04 09:28:00,67.0,67.0,30.02,SE,132,0.0,0.0,99,0.00,,,0.00,,2013-10-04 13:28:00,
2013-10-04 09:57:00,67.0,67.0,30.02,SW,219,0.0,0.0,99,0.00,,,0.00,,2013-10-04 13:57:00,
2013-10-04 10:28:00,69.0,69.0,30.02,West,281,0.0,7.0,99,0.00,,,0.00,,2013-10-04 14:28:00,
2013-10-04 10:57:00,70.0,70.0,30.02,South,171,0.0,0.0,99,0.00,,,0.00,,2013-10-04 14:57:00,
2013-10-04 11:31:00,72.0,72.0,30.02,West,260,3.0,5.0,99,0.00,,,0.00,,2013-10-04 15:31:00,
2013-10-04 11:58:00,73.0,71.0,30.01,South,184,0.0,5.0,95,0.00,,,0.00,,2013-10-04 15:58:00,
2013-10-04 12:29:00,74.0,71.0,30.02,SSW,208,0.0,7.0,91,0.00,,,0.00,,2013-10-04 16:29:00,
2013-10-04 12:58:00,76.0,70.0,30.02,SW,232,0.0,2.0,82,0.00,,,0.00,,2013-10-04 16:58:00,
2013-10-04 13:29:00,75.0,70.0,30.02,South,174,0.0,0.0,84,0.00,,,0.00,,2013-10-04 17:29:00,
2013-10-04 14:30:00,72.0,70.0,30.02,SSW,212,0.0,0.0,92,0.10,,,0.10,,2013-10-04 18:30:00,
2013-10-04 14:56:00,70.0,70.0,30.01,SSW,212,0.0,0.0,99,0.11,,,0.11,,2013-10-04 18:56:00,
2013-10-04 15:22:00,70.0,70.0,30.01,SSW,212,0.0,0.0,99,0.09,,,0.11,,2013-10-04 19:22:00,
2013-10-04 15:52:00,71.0,71.0,30.01,SSW,212,0.0,0.0,99,0.00,,,0.11,,2013-10-04 19:52:00,
2013-10-04 16:22:00,72.0,72.0,30.00,SSW,212,0.0,0.0,99,0.00,,,0.11,,2013-10-04 20:22:00,
2013-10-04 16:52:00,72.0,72.0,30.00,SSW,212,0.0,0.0,99,0.00,,,0.11,,2013-10-04 20:52:00,
2013-10-04 17:01:00,72.0,72.0,30.00,SSW,212,0.0,0.0,99,0.00,,,0.11,,2013-10-04 21:01:00,
2013-10-04 17:12:00,72.0,72.0,30.00,SSW,212,0.0,0.0,99,0.00,,,0.11,,2013-10-04 21:12:00,
2013-10-04 17:22:00,72.0,72.0,30.00,SSW,212,0.0,0.0,99,0.00,,,0.11,,2013-10-04 21:22:00,
2013-10-04 17:54:00,72.0,72.0,30.00,ENE,63,0.0,0.0,99,0.00,,,0.11,,2013-10-04 21:54:00,
2013-10-04 18:23:00,71.0,71.0,30.01,ENE,63,0.0,0.0,99,0.00,,,0.11,,2013-10-04 22:23:00,
2013-10-04 18:52:00,69.0,69.0,30.01,ENE,63,0.0,0.0,99,0.00,,,0.11,,2013-10-04 22:52:00,
2013-10-04 19:22:00,68.0,68.0,30.01,ENE,63,0.0,0.0,99,0.00,,,0.11,,2013-10-04 23:22:00,
2013-10-04 19:53:00,68.0,68.0,30.01,ENE,63,0.0,0.0,99,0.00,,,0.11,,2013-10-04 23:53:00,
2013-10-04 20:22:00,67.0,67.0,30.00,ENE,63,0.0,0.0,99,0.00,,,0.11,,2013-10-05 00:22:00,
2013-10-04 20:52:00,67.0,67.0,30.00,ENE,63,0.0,0.0,99,0.00,,,0.11,,2013-10-05 00:52:00,
2013-10-04 21:21:00,67.0,67.0,30.01,ENE,63,0.0,0.0,99,0.00,,,0.11,,2013-10-05 01:21:00,
2013-10-04 21:52:00,67.0,67.0,30.01,ENE,63,0.0,0.0,99,0.00,,,0.11,,2013-10-05 01:52:00,
2013-10-04 22:22:00,67.0,67.0,30.02,ENE,63,0.0,0.0,99,0.00,,,0.11,,2013-10-05 02:22:00,
2013-10-04 22:52:00,67.0,67.0,30.02,ENE,63,0.0,0.0,99,0.00,,,0.11,,2013-10-05 02:52:00,
2013-10-04 23:23:00,67.0,67.0,30.02,ENE,63,0.0,0.0,99,0.00,,,0.11,,2013-10-05 03:23:00,
2013-10-04 23:55:00,66.0,66.0,30.02,ENE,63,0.0,0.0,99,0.00,,,0.11,,2013-10-05 03:55:00,